Airfield :
LOGIN :

Register | Disclaimer

   EN    FR    IT 

 










Legend :    VFR   Marginal VFR   IFR   Intensive IFR   Very Intensive IFR
Visi :
Ceiling :
>= 8 km
>= 3000ft
5 to 8 km
1000 to 3000 ft
1500m to 5 km
500 to 1000 ft
800 to 1500m
200 to 500 ft
< 800m
< 200 ft
Symbols :   Thunderstorms  Fog  Heavy snow  Heavy precipitations  Wind > 20 kt
SIGMETs :     Misc.  Thunderstorms  Icing  Turbulence  Mountain Waves  Volcanic Ashes







- Airport Elevation : 370 ft


EBBE - Beauvechain AB

CURRENT METAR :
  • 190655Z 14006KT 9999 FEW140 SCT250 13/10 Q1011 BLU BLU

EXPIRED METARs :
  • 190625Z 16008KT 9999 SCT250 13/09 Q1011 BLU BLU
  • 190555Z 16006KT 9999 FEW250 13/09 Q1011 BLU BLU
  • 190525Z 12004KT 9999 FEW250 13/09 Q1011 BLU BLU
  • 190455Z VRB01KT 9999 FEW015 13/09 Q1011 BLU BLU
  • 190425Z VRB02KT 9999 FEW015 13/09 Q1011 BLU BLU

TAF TAF EBBE
Valid from the 19 at 07:00 until the 19 at 16:00 UTC


190541Z 1907/1916 18006KT 9999 SCT050
BECMG 1915/1916 FEW038 BKN075
No reported NOTAMs for that airfield.



MET'MAP, your aeronautical weather chart ! - Copyright ORBIFLY December 2007 - Disclaimer

ORBIFLY MET'MAP TEAM :

Programming & Development : Alexandra Zaïnal
Concept & Development : Baudouin d'Aumeries
Co-Development & Prog : Marc-Olivier Méhu
Technical & hardware support : Manuel Goepfert

Contact : metmap@orbifly.com




SOURCES & CREDITS :

   NOAA